< Typhoon 196634 1966 Season Typhoon 196701 >
Typhoon 196635 (PAMELA)
General InformationTrack Information on Google Maps || Disaster Info.ResourceGoogle EarthGE AnimationAtom FeedGeoJSON
Detalied Best Track (Time Zone = UTC)
Year Month Day Hour Lat. Long. Pressure (hPa) Wind (kt) Class Image Chart
1966 12 24 06 7.0 139.0 1000 0 2 -- Chart
1966 12 24 12 7.5 137.5 1002 0 2 -- Chart
1966 12 24 18 8.0 136.0 1002 0 2 -- Chart
1966 12 25 00 9.0 134.0 1004 0 2 -- Chart
1966 12 25 06 9.5 132.5 1002 0 2 -- Chart
1966 12 25 12 10.0 130.5 1002 0 2 -- Chart
1966 12 25 18 10.5 129.0 992 0 2 -- Chart
1966 12 26 00 11.0 128.0 980 0 9 -- Chart
1966 12 26 06 11.5 127.0 970 0 9 -- Chart
1966 12 26 12 11.8 126.0 965 0 9 -- Chart
1966 12 26 18 12.3 125.0 980 0 9 -- Chart
1966 12 27 00 12.2 124.3 985 0 9 -- Chart
1966 12 27 06 12.3 123.1 985 0 9 -- Chart
1966 12 27 12 12.7 122.2 985 0 9 -- Chart
1966 12 27 18 12.8 121.5 990 0 9 -- Chart
1966 12 28 00 12.7 120.8 990 0 9 -- Chart
1966 12 28 06 12.5 120.1 992 0 9 -- Chart
1966 12 28 12 12.5 119.7 994 0 9 -- Chart
1966 12 28 18 12.5 119.2 996 0 9 -- Chart
1966 12 29 00 12.6 118.5 1000 0 9 -- Chart
1966 12 29 06 12.7 117.6 1000 0 9 -- Chart
1966 12 29 12 12.7 116.8 1000 0 9 -- Chart
1966 12 29 18 12.8 115.8 1002 0 9 -- Chart
1966 12 30 00 12.8 115.0 1002 0 9 -- Chart
1966 12 30 06 13.0 114.0 1004 0 9 -- Chart
1966 12 30 12 13.0 113.0 1004 0 9 -- Chart
1966 12 30 18 13.0 112.0 1006 0 9 -- Chart
1966 12 31 00 13.0 111.0 1008 0 2 -- Chart
Japan Meteorological Agency Best Track Data | Correction Date : 2013-03-19
< Typhoon 196634 1966 Season Typhoon 196701 >

Help